sensor_id;sensor_type;location;lat;lon;timestamp;P1;durP1;ratioP1;P2;durP2;ratioP2
73524;SDS011;61776;56.194;44.160;2022-09-02T00:01:48;4.22;;;1.10;;
73524;SDS011;61776;56.194;44.160;2022-09-02T00:04:21;3.53;;;1.00;;
73524;SDS011;61776;56.194;44.160;2022-09-02T00:06:49;3.08;;;1.00;;
73524;SDS011;61776;56.194;44.160;2022-09-02T00:09:18;3.42;;;1.00;;
73524;SDS011;61776;56.194;44.160;2022-09-02T00:11:47;4.38;;;1.20;;
73524;SDS011;61776;56.194;44.160;2022-09-02T00:14:20;4.35;;;1.10;;
73524;SDS011;61776;56.194;44.160;2022-09-02T00:16:56;4.70;;;1.23;;
73524;SDS011;61776;56.194;44.160;2022-09-02T00:19:25;6.43;;;1.50;;
73524;SDS011;61776;56.194;44.160;2022-09-02T00:21:52;6.57;;;1.45;;
73524;SDS011;61776;56.194;44.160;2022-09-02T00:24:20;4.68;;;1.40;;
73524;SDS011;61776;56.194;44.160;2022-09-02T00:26:47;3.38;;;1.35;;
73524;SDS011;61776;56.194;44.160;2022-09-02T00:29:14;6.33;;;2.23;;
73524;SDS011;61776;56.194;44.160;2022-09-02T00:31:40;4.97;;;1.40;;
73524;SDS011;61776;56.194;44.160;2022-09-02T00:34:07;4.18;;;1.30;;
73524;SDS011;61776;56.194;44.160;2022-09-02T00:36:34;3.50;;;1.00;;
73524;SDS011;61776;56.194;44.160;2022-09-02T00:39:00;3.53;;;1.05;;
73524;SDS011;61776;56.194;44.160;2022-09-02T00:41:27;3.07;;;1.07;;
73524;SDS011;61776;56.194;44.160;2022-09-02T00:43:55;5.70;;;0.80;;
73524;SDS011;61776;56.194;44.160;2022-09-02T00:46:24;5.20;;;1.10;;
73524;SDS011;61776;56.194;44.160;2022-09-02T00:51:18;6.38;;;0.95;;
73524;SDS011;61776;56.194;44.160;2022-09-02T00:53:45;3.60;;;0.90;;
73524;SDS011;61776;56.194;44.160;2022-09-02T00:56:14;4.05;;;0.90;;
73524;SDS011;61776;56.194;44.160;2022-09-02T00:58:44;8.38;;;1.10;;
73524;SDS011;61776;56.194;44.160;2022-09-02T01:01:11;2.88;;;0.80;;
73524;SDS011;61776;56.194;44.160;2022-09-02T01:03:37;6.30;;;1.03;;
73524;SDS011;61776;56.194;44.160;2022-09-02T01:06:05;4.60;;;0.80;;
73524;SDS011;61776;56.194;44.160;2022-09-02T01:08:33;5.10;;;1.20;;
73524;SDS011;61776;56.194;44.160;2022-09-02T01:11:01;12.05;;;1.75;;
73524;SDS011;61776;56.194;44.160;2022-09-02T01:13:30;3.60;;;0.90;;
73524;SDS011;61776;56.194;44.160;2022-09-02T01:16:23;3.90;;;0.90;;
73524;SDS011;61776;56.194;44.160;2022-09-02T01:18:54;4.82;;;1.08;;
73524;SDS011;61776;56.194;44.160;2022-09-02T01:21:25;3.72;;;1.10;;
73524;SDS011;61776;56.194;44.160;2022-09-02T01:23:51;4.10;;;1.10;;
73524;SDS011;61776;56.194;44.160;2022-09-02T01:26:17;3.47;;;1.15;;
73524;SDS011;61776;56.194;44.160;2022-09-02T01:28:43;3.53;;;0.80;;
73524;SDS011;61776;56.194;44.160;2022-09-02T01:31:10;4.75;;;1.38;;
73524;SDS011;61776;56.194;44.160;2022-09-02T01:33:37;5.68;;;1.23;;
73524;SDS011;61776;56.194;44.160;2022-09-02T01:36:03;4.00;;;1.00;;
73524;SDS011;61776;56.194;44.160;2022-09-02T01:38:30;3.47;;;1.00;;
73524;SDS011;61776;56.194;44.160;2022-09-02T01:40:56;3.33;;;0.87;;
73524;SDS011;61776;56.194;44.160;2022-09-02T01:43:23;6.82;;;0.98;;
73524;SDS011;61776;56.194;44.160;2022-09-02T01:45:52;6.68;;;0.85;;
73524;SDS011;61776;56.194;44.160;2022-09-02T01:48:22;3.72;;;0.82;;
73524;SDS011;61776;56.194;44.160;2022-09-02T01:50:52;5.03;;;0.82;;
73524;SDS011;61776;56.194;44.160;2022-09-02T01:53:21;3.60;;;1.13;;
73524;SDS011;61776;56.194;44.160;2022-09-02T01:55:50;3.58;;;0.88;;
73524;SDS011;61776;56.194;44.160;2022-09-02T01:58:16;16.30;;;2.80;;
73524;SDS011;61776;56.194;44.160;2022-09-02T02:00:44;6.72;;;2.40;;
73524;SDS011;61776;56.194;44.160;2022-09-02T02:03:11;7.82;;;2.30;;
73524;SDS011;61776;56.194;44.160;2022-09-02T02:05:37;10.80;;;3.63;;
73524;SDS011;61776;56.194;44.160;2022-09-02T02:08:04;15.38;;;6.35;;
73524;SDS011;61776;56.194;44.160;2022-09-02T02:10:30;11.45;;;4.60;;
73524;SDS011;61776;56.194;44.160;2022-09-02T02:12:58;14.45;;;4.60;;
73524;SDS011;61776;56.194;44.160;2022-09-02T02:15:30;17.92;;;5.35;;
73524;SDS011;61776;56.194;44.160;2022-09-02T02:17:56;15.20;;;5.03;;
73524;SDS011;61776;56.194;44.160;2022-09-02T02:20:24;11.88;;;3.50;;
73524;SDS011;61776;56.194;44.160;2022-09-02T02:22:51;9.00;;;2.67;;
73524;SDS011;61776;56.194;44.160;2022-09-02T02:25:17;11.20;;;3.63;;
73524;SDS011;61776;56.194;44.160;2022-09-02T02:27:43;10.10;;;3.07;;
73524;SDS011;61776;56.194;44.160;2022-09-02T02:30:11;11.55;;;3.70;;
73524;SDS011;61776;56.194;44.160;2022-09-02T02:32:38;11.35;;;4.55;;
73524;SDS011;61776;56.194;44.160;2022-09-02T02:35:05;14.80;;;4.05;;
73524;SDS011;61776;56.194;44.160;2022-09-02T02:37:33;12.80;;;3.70;;
73524;SDS011;61776;56.194;44.160;2022-09-02T02:39:59;9.90;;;2.83;;
73524;SDS011;61776;56.194;44.160;2022-09-02T02:42:26;8.43;;;2.15;;
73524;SDS011;61776;56.194;44.160;2022-09-02T02:44:53;11.35;;;2.15;;
73524;SDS011;61776;56.194;44.160;2022-09-02T02:47:19;7.55;;;1.90;;
73524;SDS011;61776;56.194;44.160;2022-09-02T02:49:45;6.35;;;2.70;;
73524;SDS011;61776;56.194;44.160;2022-09-02T02:52:11;4.93;;;1.63;;
73524;SDS011;61776;56.194;44.160;2022-09-02T02:54:38;5.95;;;1.52;;
73524;SDS011;61776;56.194;44.160;2022-09-02T02:57:05;7.38;;;1.98;;
73524;SDS011;61776;56.194;44.160;2022-09-02T02:59:32;6.32;;;1.90;;
73524;SDS011;61776;56.194;44.160;2022-09-02T03:02:05;9.53;;;3.20;;
73524;SDS011;61776;56.194;44.160;2022-09-02T03:04:32;13.35;;;4.03;;
73524;SDS011;61776;56.194;44.160;2022-09-02T03:06:58;13.93;;;4.03;;
73524;SDS011;61776;56.194;44.160;2022-09-02T03:09:26;13.75;;;4.68;;
73524;SDS011;61776;56.194;44.160;2022-09-02T03:11:52;14.63;;;3.80;;
73524;SDS011;61776;56.194;44.160;2022-09-02T03:14:18;17.17;;;3.53;;
73524;SDS011;61776;56.194;44.160;2022-09-02T03:16:45;14.57;;;3.38;;
73524;SDS011;61776;56.194;44.160;2022-09-02T03:19:11;9.32;;;2.63;;
73524;SDS011;61776;56.194;44.160;2022-09-02T03:21:40;14.70;;;3.50;;
73524;SDS011;61776;56.194;44.160;2022-09-02T03:24:09;9.70;;;2.37;;
73524;SDS011;61776;56.194;44.160;2022-09-02T03:26:37;9.30;;;1.80;;
73524;SDS011;61776;56.194;44.160;2022-09-02T03:29:04;8.85;;;2.50;;
73524;SDS011;61776;56.194;44.160;2022-09-02T03:31:31;12.07;;;2.47;;
73524;SDS011;61776;56.194;44.160;2022-09-02T03:33:58;7.00;;;2.05;;
73524;SDS011;61776;56.194;44.160;2022-09-02T03:36:27;6.53;;;1.50;;
73524;SDS011;61776;56.194;44.160;2022-09-02T03:38:55;7.00;;;2.08;;
73524;SDS011;61776;56.194;44.160;2022-09-02T03:41:22;4.78;;;1.25;;
73524;SDS011;61776;56.194;44.160;2022-09-02T03:43:48;4.22;;;1.20;;
73524;SDS011;61776;56.194;44.160;2022-09-02T03:46:20;6.20;;;1.15;;
73524;SDS011;61776;56.194;44.160;2022-09-02T03:48:47;3.63;;;0.83;;
73524;SDS011;61776;56.194;44.160;2022-09-02T03:51:19;4.22;;;0.80;;
73524;SDS011;61776;56.194;44.160;2022-09-02T03:53:46;6.97;;;0.65;;
73524;SDS011;61776;56.194;44.160;2022-09-02T03:56:14;3.13;;;0.70;;
73524;SDS011;61776;56.194;44.160;2022-09-02T03:58:42;4.43;;;0.70;;
73524;SDS011;61776;56.194;44.160;2022-09-02T04:01:13;4.43;;;0.60;;
73524;SDS011;61776;56.194;44.160;2022-09-02T04:03:42;3.97;;;0.63;;
73524;SDS011;61776;56.194;44.160;2022-09-02T04:06:12;3.70;;;0.77;;
73524;SDS011;61776;56.194;44.160;2022-09-02T04:08:40;4.28;;;0.70;;
73524;SDS011;61776;56.194;44.160;2022-09-02T04:11:09;4.28;;;0.52;;
73524;SDS011;61776;56.194;44.160;2022-09-02T04:13:39;3.37;;;0.50;;
73524;SDS011;61776;56.194;44.160;2022-09-02T04:16:09;3.22;;;0.98;;
73524;SDS011;61776;56.194;44.160;2022-09-02T04:18:38;4.53;;;0.93;;
73524;SDS011;61776;56.194;44.160;2022-09-02T04:21:04;4.30;;;0.88;;
73524;SDS011;61776;56.194;44.160;2022-09-02T04:23:33;3.33;;;0.70;;
73524;SDS011;61776;56.194;44.160;2022-09-02T04:26:09;3.40;;;0.90;;
73524;SDS011;61776;56.194;44.160;2022-09-02T04:28:38;4.97;;;0.75;;
73524;SDS011;61776;56.194;44.160;2022-09-02T04:31:06;2.60;;;0.70;;
73524;SDS011;61776;56.194;44.160;2022-09-02T04:33:35;4.00;;;0.60;;
73524;SDS011;61776;56.194;44.160;2022-09-02T04:36:10;2.88;;;0.88;;
73524;SDS011;61776;56.194;44.160;2022-09-02T04:38:38;3.10;;;0.73;;
73524;SDS011;61776;56.194;44.160;2022-09-02T04:41:13;5.32;;;1.00;;
73524;SDS011;61776;56.194;44.160;2022-09-02T04:43:43;6.25;;;0.75;;
73524;SDS011;61776;56.194;44.160;2022-09-02T04:46:11;4.72;;;0.80;;
73524;SDS011;61776;56.194;44.160;2022-09-02T04:48:40;3.15;;;0.93;;
73524;SDS011;61776;56.194;44.160;2022-09-02T04:51:11;4.03;;;0.90;;
73524;SDS011;61776;56.194;44.160;2022-09-02T04:53:40;4.68;;;0.70;;
73524;SDS011;61776;56.194;44.160;2022-09-02T04:56:07;3.95;;;1.00;;
73524;SDS011;61776;56.194;44.160;2022-09-02T04:58:34;5.05;;;0.90;;
73524;SDS011;61776;56.194;44.160;2022-09-02T05:01:09;4.13;;;0.70;;
73524;SDS011;61776;56.194;44.160;2022-09-02T05:03:42;4.47;;;0.70;;
73524;SDS011;61776;56.194;44.160;2022-09-02T05:06:10;3.53;;;0.70;;
73524;SDS011;61776;56.194;44.160;2022-09-02T05:08:39;5.97;;;0.68;;
73524;SDS011;61776;56.194;44.160;2022-09-02T05:11:19;7.15;;;1.10;;
73524;SDS011;61776;56.194;44.160;2022-09-02T05:13:49;2.72;;;0.73;;
73524;SDS011;61776;56.194;44.160;2022-09-02T05:16:21;3.53;;;0.60;;
73524;SDS011;61776;56.194;44.160;2022-09-02T05:18:50;2.55;;;0.65;;
73524;SDS011;61776;56.194;44.160;2022-09-02T05:21:19;4.75;;;0.85;;
73524;SDS011;61776;56.194;44.160;2022-09-02T05:23:46;4.18;;;0.60;;
73524;SDS011;61776;56.194;44.160;2022-09-02T05:26:12;3.40;;;0.70;;
73524;SDS011;61776;56.194;44.160;2022-09-02T05:28:39;4.00;;;0.70;;
73524;SDS011;61776;56.194;44.160;2022-09-02T05:31:07;3.60;;;0.68;;
73524;SDS011;61776;56.194;44.160;2022-09-02T05:33:36;3.22;;;0.68;;
73524;SDS011;61776;56.194;44.160;2022-09-02T05:36:06;3.00;;;0.52;;
73524;SDS011;61776;56.194;44.160;2022-09-02T05:38:34;9.07;;;0.60;;
73524;SDS011;61776;56.194;44.160;2022-09-02T05:41:05;3.25;;;0.60;;
73524;SDS011;61776;56.194;44.160;2022-09-02T05:43:36;5.93;;;0.70;;
73524;SDS011;61776;56.194;44.160;2022-09-02T05:46:08;2.40;;;0.63;;
73524;SDS011;61776;56.194;44.160;2022-09-02T05:48:36;4.50;;;2.10;;
73524;SDS011;61776;56.194;44.160;2022-09-02T05:51:23;3.23;;;0.83;;
73524;SDS011;61776;56.194;44.160;2022-09-02T05:53:52;2.90;;;0.80;;
73524;SDS011;61776;56.194;44.160;2022-09-02T05:56:20;5.07;;;0.63;;
73524;SDS011;61776;56.194;44.160;2022-09-02T05:58:46;5.75;;;0.50;;
73524;SDS011;61776;56.194;44.160;2022-09-02T06:01:13;2.67;;;0.52;;
73524;SDS011;61776;56.194;44.160;2022-09-02T06:03:41;4.87;;;0.50;;
73524;SDS011;61776;56.194;44.160;2022-09-02T06:06:07;2.75;;;0.60;;
73524;SDS011;61776;56.194;44.160;2022-09-02T06:08:36;3.55;;;0.50;;
73524;SDS011;61776;56.194;44.160;2022-09-02T06:11:06;2.30;;;0.40;;
73524;SDS011;61776;56.194;44.160;2022-09-02T06:13:40;2.00;;;0.50;;
73524;SDS011;61776;56.194;44.160;2022-09-02T06:16:07;4.05;;;0.40;;
73524;SDS011;61776;56.194;44.160;2022-09-02T06:18:39;2.08;;;0.50;;
73524;SDS011;61776;56.194;44.160;2022-09-02T06:21:05;2.78;;;0.40;;
73524;SDS011;61776;56.194;44.160;2022-09-02T06:23:37;3.30;;;0.40;;
73524;SDS011;61776;56.194;44.160;2022-09-02T06:26:07;2.87;;;0.60;;
73524;SDS011;61776;56.194;44.160;2022-09-02T06:28:34;2.55;;;0.30;;
73524;SDS011;61776;56.194;44.160;2022-09-02T06:31:05;1.45;;;0.30;;
73524;SDS011;61776;56.194;44.160;2022-09-02T06:33:32;3.08;;;0.40;;
73524;SDS011;61776;56.194;44.160;2022-09-02T06:35:58;1.67;;;0.30;;
73524;SDS011;61776;56.194;44.160;2022-09-02T06:38:25;3.40;;;0.40;;
73524;SDS011;61776;56.194;44.160;2022-09-02T06:40:52;2.08;;;0.40;;
73524;SDS011;61776;56.194;44.160;2022-09-02T06:43:26;2.38;;;0.30;;
73524;SDS011;61776;56.194;44.160;2022-09-02T06:46:13;1.70;;;0.35;;
73524;SDS011;61776;56.194;44.160;2022-09-02T06:48:46;2.67;;;0.60;;
73524;SDS011;61776;56.194;44.160;2022-09-02T06:51:20;4.75;;;0.45;;
73524;SDS011;61776;56.194;44.160;2022-09-02T06:53:47;3.72;;;0.30;;
73524;SDS011;61776;56.194;44.160;2022-09-02T06:56:15;3.33;;;0.52;;
73524;SDS011;61776;56.194;44.160;2022-09-02T06:58:41;1.70;;;0.40;;
73524;SDS011;61776;56.194;44.160;2022-09-02T07:01:08;7.87;;;0.53;;
73524;SDS011;61776;56.194;44.160;2022-09-02T07:03:37;2.45;;;0.45;;
73524;SDS011;61776;56.194;44.160;2022-09-02T07:06:31;1.85;;;0.30;;
73524;SDS011;61776;56.194;44.160;2022-09-02T07:09:01;1.73;;;0.20;;
73524;SDS011;61776;56.194;44.160;2022-09-02T07:11:27;1.77;;;0.30;;
73524;SDS011;61776;56.194;44.160;2022-09-02T07:13:54;2.10;;;0.40;;
73524;SDS011;61776;56.194;44.160;2022-09-02T07:16:21;2.92;;;1.73;;
73524;SDS011;61776;56.194;44.160;2022-09-02T07:18:47;7.40;;;5.25;;
73524;SDS011;61776;56.194;44.160;2022-09-02T07:21:13;9.77;;;3.10;;
73524;SDS011;61776;56.194;44.160;2022-09-02T07:23:40;2.40;;;0.30;;
73524;SDS011;61776;56.194;44.160;2022-09-02T07:26:11;2.73;;;0.30;;
73524;SDS011;61776;56.194;44.160;2022-09-02T07:28:41;2.22;;;0.32;;
73524;SDS011;61776;56.194;44.160;2022-09-02T07:31:09;3.50;;;0.30;;
73524;SDS011;61776;56.194;44.160;2022-09-02T07:33:37;2.50;;;0.30;;
73524;SDS011;61776;56.194;44.160;2022-09-02T07:36:04;1.60;;;0.20;;
73524;SDS011;61776;56.194;44.160;2022-09-02T07:38:33;1.77;;;0.37;;
73524;SDS011;61776;56.194;44.160;2022-09-02T07:40:59;2.42;;;0.50;;
73524;SDS011;61776;56.194;44.160;2022-09-02T07:43:29;2.17;;;0.40;;
73524;SDS011;61776;56.194;44.160;2022-09-02T07:45:56;3.58;;;0.38;;
73524;SDS011;61776;56.194;44.160;2022-09-02T07:48:27;3.30;;;0.30;;
73524;SDS011;61776;56.194;44.160;2022-09-02T07:50:54;3.67;;;0.30;;
73524;SDS011;61776;56.194;44.160;2022-09-02T07:53:22;2.45;;;0.20;;
73524;SDS011;61776;56.194;44.160;2022-09-02T07:55:50;2.00;;;0.30;;
73524;SDS011;61776;56.194;44.160;2022-09-02T07:58:17;2.95;;;0.50;;
73524;SDS011;61776;56.194;44.160;2022-09-02T08:00:45;1.52;;;0.20;;
73524;SDS011;61776;56.194;44.160;2022-09-02T08:03:13;1.40;;;0.20;;
73524;SDS011;61776;56.194;44.160;2022-09-02T08:05:45;2.70;;;0.38;;
73524;SDS011;61776;56.194;44.160;2022-09-02T08:08:13;1.27;;;0.20;;
73524;SDS011;61776;56.194;44.160;2022-09-02T08:10:40;10.25;;;0.40;;
73524;SDS011;61776;56.194;44.160;2022-09-02T08:13:06;3.60;;;0.50;;
73524;SDS011;61776;56.194;44.160;2022-09-02T08:15:33;1.80;;;0.30;;
73524;SDS011;61776;56.194;44.160;2022-09-02T08:18:01;2.28;;;0.20;;
73524;SDS011;61776;56.194;44.160;2022-09-02T08:20:27;5.40;;;0.50;;
73524;SDS011;61776;56.194;44.160;2022-09-02T08:22:55;4.05;;;0.30;;
73524;SDS011;61776;56.194;44.160;2022-09-02T08:25:21;6.85;;;0.30;;
73524;SDS011;61776;56.194;44.160;2022-09-02T08:27:47;2.67;;;0.20;;
73524;SDS011;61776;56.194;44.160;2022-09-02T08:30:13;9.00;;;0.82;;
73524;SDS011;61776;56.194;44.160;2022-09-02T08:32:40;1.33;;;0.20;;
73524;SDS011;61776;56.194;44.160;2022-09-02T08:35:07;3.47;;;0.32;;
73524;SDS011;61776;56.194;44.160;2022-09-02T08:37:34;3.43;;;0.30;;
73524;SDS011;61776;56.194;44.160;2022-09-02T08:40:02;3.35;;;0.30;;
73524;SDS011;61776;56.194;44.160;2022-09-02T08:50:49;4.97;;;0.20;;
73524;SDS011;61776;56.194;44.160;2022-09-02T08:53:27;2.33;;;0.30;;
73524;SDS011;61776;56.194;44.160;2022-09-02T08:55:59;9.13;;;0.28;;
73524;SDS011;61776;56.194;44.160;2022-09-02T08:58:31;2.35;;;0.30;;
73524;SDS011;61776;56.194;44.160;2022-09-02T09:04:05;2.83;;;0.50;;
73524;SDS011;61776;56.194;44.160;2022-09-02T09:12:03;4.72;;;0.30;;
73524;SDS011;61776;56.194;44.160;2022-09-02T09:17:31;2.80;;;0.70;;
73524;SDS011;61776;56.194;44.160;2022-09-02T09:20:16;6.20;;;0.35;;
73524;SDS011;61776;56.194;44.160;2022-09-02T09:22:44;2.75;;;0.40;;
73524;SDS011;61776;56.194;44.160;2022-09-02T09:25:14;1.55;;;0.20;;
73524;SDS011;61776;56.194;44.160;2022-09-02T09:27:41;1.00;;;0.20;;
73524;SDS011;61776;56.194;44.160;2022-09-02T09:30:10;7.43;;;0.37;;
73524;SDS011;61776;56.194;44.160;2022-09-02T09:32:41;3.45;;;0.30;;
73524;SDS011;61776;56.194;44.160;2022-09-02T09:35:11;4.05;;;0.30;;
73524;SDS011;61776;56.194;44.160;2022-09-02T09:37:42;5.63;;;0.70;;
73524;SDS011;61776;56.194;44.160;2022-09-02T09:45:39;1.65;;;0.10;;
73524;SDS011;61776;56.194;44.160;2022-09-02T09:48:14;2.85;;;0.25;;
73524;SDS011;61776;56.194;44.160;2022-09-02T09:50:47;6.88;;;0.30;;
73524;SDS011;61776;56.194;44.160;2022-09-02T09:53:34;1.88;;;0.28;;
73524;SDS011;61776;56.194;44.160;2022-09-02T10:00:56;6.43;;;0.20;;
73524;SDS011;61776;56.194;44.160;2022-09-02T10:03:28;1.45;;;0.20;;
73524;SDS011;61776;56.194;44.160;2022-09-02T10:05:56;1.73;;;0.40;;
73524;SDS011;61776;56.194;44.160;2022-09-02T10:08:26;2.30;;;0.32;;
73524;SDS011;61776;56.194;44.160;2022-09-02T10:13:22;0.90;;;0.20;;
73524;SDS011;61776;56.194;44.160;2022-09-02T10:18:50;1.53;;;0.30;;
73524;SDS011;61776;56.194;44.160;2022-09-02T10:27:16;2.00;;;0.20;;
73524;SDS011;61776;56.194;44.160;2022-09-02T10:35:28;5.63;;;0.43;;
73524;SDS011;61776;56.194;44.160;2022-09-02T10:46:23;3.33;;;0.53;;
73524;SDS011;61776;56.194;44.160;2022-09-02T10:49:00;1.95;;;0.47;;
73524;SDS011;61776;56.194;44.160;2022-09-02T10:54:54;10.23;;;1.23;;
73524;SDS011;61776;56.194;44.160;2022-09-02T11:00:00;8.40;;;0.30;;
73524;SDS011;61776;56.194;44.160;2022-09-02T11:05:12;2.10;;;0.40;;
73524;SDS011;61776;56.194;44.160;2022-09-02T11:07:54;3.72;;;0.40;;
73524;SDS011;61776;56.194;44.160;2022-09-02T11:10:36;2.03;;;0.50;;
73524;SDS011;61776;56.194;44.160;2022-09-02T11:13:17;3.17;;;0.20;;
73524;SDS011;61776;56.194;44.160;2022-09-02T11:15:50;2.15;;;0.30;;
73524;SDS011;61776;56.194;44.160;2022-09-02T11:21:44;3.92;;;0.20;;
73524;SDS011;61776;56.194;44.160;2022-09-02T11:27:08;4.90;;;0.30;;
73524;SDS011;61776;56.194;44.160;2022-09-02T11:34:56;3.72;;;0.30;;
73524;SDS011;61776;56.194;44.160;2022-09-02T11:37:26;3.23;;;0.30;;
73524;SDS011;61776;56.194;44.160;2022-09-02T11:40:06;2.05;;;0.30;;
73524;SDS011;61776;56.194;44.160;2022-09-02T11:45:22;2.03;;;0.20;;
73524;SDS011;61776;56.194;44.160;2022-09-02T11:53:42;2.13;;;0.20;;
73524;SDS011;61776;56.194;44.160;2022-09-02T11:58:40;1.40;;;0.20;;
73524;SDS011;61776;56.194;44.160;2022-09-02T12:03:44;1.70;;;0.30;;
73524;SDS011;61776;56.194;44.160;2022-09-02T12:06:16;2.22;;;0.40;;
73524;SDS011;61776;56.194;44.160;2022-09-02T12:19:38;6.00;;;0.40;;
73524;SDS011;61776;56.194;44.160;2022-09-02T12:24:50;3.15;;;0.25;;
73524;SDS011;61776;56.194;44.160;2022-09-02T12:27:24;3.15;;;0.32;;
73524;SDS011;61776;56.194;44.160;2022-09-02T12:29:53;13.13;;;0.50;;
73524;SDS011;61776;56.194;44.160;2022-09-02T12:35:28;2.28;;;0.20;;
73524;SDS011;61776;56.194;44.160;2022-09-02T12:38:16;1.83;;;0.20;;
73524;SDS011;61776;56.194;44.160;2022-09-02T12:41:08;2.22;;;0.20;;
73524;SDS011;61776;56.194;44.160;2022-09-02T12:52:01;1.85;;;0.30;;
73524;SDS011;61776;56.194;44.160;2022-09-02T12:54:48;4.57;;;0.30;;
73524;SDS011;61776;56.194;44.160;2022-09-02T12:57:15;2.53;;;0.30;;
73524;SDS011;61776;56.194;44.160;2022-09-02T12:59:43;4.95;;;0.40;;
73524;SDS011;61776;56.194;44.160;2022-09-02T13:09:54;2.50;;;0.30;;
73524;SDS011;61776;56.194;44.160;2022-09-02T13:30:12;3.60;;;0.52;;
73524;SDS011;61776;56.194;44.160;2022-09-02T13:32:43;3.35;;;0.30;;
73524;SDS011;61776;56.194;44.160;2022-09-02T13:35:31;2.07;;;0.40;;
73524;SDS011;61776;56.194;44.160;2022-09-02T13:37:57;3.55;;;0.40;;
73524;SDS011;61776;56.194;44.160;2022-09-02T13:42:51;2.38;;;0.40;;
73524;SDS011;61776;56.194;44.160;2022-09-02T13:45:23;2.30;;;0.40;;
73524;SDS011;61776;56.194;44.160;2022-09-02T13:47:51;5.60;;;0.57;;
73524;SDS011;61776;56.194;44.160;2022-09-02T13:50:27;4.28;;;0.50;;
73524;SDS011;61776;56.194;44.160;2022-09-02T13:52:55;2.85;;;0.55;;
73524;SDS011;61776;56.194;44.160;2022-09-02T13:55:26;2.67;;;0.40;;
73524;SDS011;61776;56.194;44.160;2022-09-02T14:00:26;4.15;;;0.60;;
73524;SDS011;61776;56.194;44.160;2022-09-02T14:02:58;2.55;;;0.40;;
73524;SDS011;61776;56.194;44.160;2022-09-02T14:05:32;3.33;;;0.30;;
73524;SDS011;61776;56.194;44.160;2022-09-02T14:08:01;1.58;;;0.30;;
73524;SDS011;61776;56.194;44.160;2022-09-02T14:10:30;5.40;;;0.40;;
73524;SDS011;61776;56.194;44.160;2022-09-02T14:12:59;1.80;;;0.30;;
73524;SDS011;61776;56.194;44.160;2022-09-02T14:15:29;2.50;;;0.30;;
73524;SDS011;61776;56.194;44.160;2022-09-02T14:18:06;2.75;;;0.30;;
73524;SDS011;61776;56.194;44.160;2022-09-02T14:21:23;1.88;;;0.40;;
73524;SDS011;61776;56.194;44.160;2022-09-02T14:23:45;1.80;;;0.30;;
73524;SDS011;61776;56.194;44.160;2022-09-02T14:26:18;2.92;;;0.40;;
73524;SDS011;61776;56.194;44.160;2022-09-02T14:28:49;2.95;;;0.70;;
73524;SDS011;61776;56.194;44.160;2022-09-02T14:31:24;2.65;;;0.43;;
73524;SDS011;61776;56.194;44.160;2022-09-02T14:33:58;2.53;;;0.60;;
73524;SDS011;61776;56.194;44.160;2022-09-02T14:36:30;3.00;;;0.50;;
73524;SDS011;61776;56.194;44.160;2022-09-02T14:39:08;3.80;;;0.50;;
73524;SDS011;61776;56.194;44.160;2022-09-02T14:41:43;2.80;;;0.70;;
73524;SDS011;61776;56.194;44.160;2022-09-02T14:44:23;2.45;;;0.40;;
73524;SDS011;61776;56.194;44.160;2022-09-02T14:47:00;4.13;;;0.70;;
73524;SDS011;61776;56.194;44.160;2022-09-02T14:49:43;4.17;;;0.67;;
73524;SDS011;61776;56.194;44.160;2022-09-02T14:52:16;2.42;;;0.40;;
73524;SDS011;61776;56.194;44.160;2022-09-02T14:54:45;3.72;;;0.50;;
73524;SDS011;61776;56.194;44.160;2022-09-02T14:59:48;4.72;;;0.60;;
73524;SDS011;61776;56.194;44.160;2022-09-02T15:04:53;3.60;;;0.50;;
73524;SDS011;61776;56.194;44.160;2022-09-02T15:07:20;6.03;;;2.70;;
73524;SDS011;61776;56.194;44.160;2022-09-02T15:09:46;3.03;;;0.90;;
73524;SDS011;61776;56.194;44.160;2022-09-02T15:12:19;3.25;;;1.05;;
73524;SDS011;61776;56.194;44.160;2022-09-02T15:14:52;3.67;;;1.17;;
73524;SDS011;61776;56.194;44.160;2022-09-02T15:17:19;5.05;;;0.50;;
73524;SDS011;61776;56.194;44.160;2022-09-02T15:19:45;3.53;;;0.50;;
73524;SDS011;61776;56.194;44.160;2022-09-02T15:22:12;3.03;;;0.73;;
73524;SDS011;61776;56.194;44.160;2022-09-02T15:24:38;3.78;;;0.50;;
73524;SDS011;61776;56.194;44.160;2022-09-02T15:27:04;1.80;;;0.40;;
73524;SDS011;61776;56.194;44.160;2022-09-02T15:29:30;1.95;;;0.30;;
73524;SDS011;61776;56.194;44.160;2022-09-02T15:31:56;2.60;;;0.30;;
73524;SDS011;61776;56.194;44.160;2022-09-02T15:34:22;4.03;;;0.32;;
73524;SDS011;61776;56.194;44.160;2022-09-02T15:36:48;2.17;;;0.30;;
73524;SDS011;61776;56.194;44.160;2022-09-02T15:39:14;2.00;;;0.20;;
73524;SDS011;61776;56.194;44.160;2022-09-02T15:41:44;4.30;;;0.52;;
73524;SDS011;61776;56.194;44.160;2022-09-02T15:44:10;2.63;;;0.50;;
73524;SDS011;61776;56.194;44.160;2022-09-02T15:46:36;2.20;;;0.47;;
73524;SDS011;61776;56.194;44.160;2022-09-02T15:49:03;1.98;;;0.40;;
73524;SDS011;61776;56.194;44.160;2022-09-02T15:51:31;4.05;;;0.40;;
73524;SDS011;61776;56.194;44.160;2022-09-02T15:54:05;3.78;;;0.40;;
73524;SDS011;61776;56.194;44.160;2022-09-02T15:56:33;3.50;;;0.50;;
73524;SDS011;61776;56.194;44.160;2022-09-02T15:59:04;2.90;;;0.50;;
73524;SDS011;61776;56.194;44.160;2022-09-02T16:01:36;3.50;;;0.50;;
73524;SDS011;61776;56.194;44.160;2022-09-02T16:04:04;2.45;;;0.50;;
73524;SDS011;61776;56.194;44.160;2022-09-02T16:06:31;2.97;;;0.40;;
73524;SDS011;61776;56.194;44.160;2022-09-02T16:09:37;4.82;;;0.60;;
